Wembley, Canada
Current Conditions -  °F | °C
As of 11:00 PM on Saturday 20 Dec 2014 (Local Time) from CYQU Reporting Station
Overcast Overcast  
Wind Chill: 14°   Ceiling: 6500
Heat Index: 14°   Visibility: 25mi
Dew Point: 12°   Wind: 2mph
Humidity: 93%   Direction: 170°S
Pressure: 29.23"   Gusts: NA
Location:  55.15°N, 119.15°W
Report Text: CYQU 210600Z 17002KT 25SM BKN065 OVC090 M10/M11 A2923 RMK SC6AC2 SLP947
Loading
Personal Weather Stations






























Interactive Weather Map New forecast layout! Learn more

10-Day Weather Forecast

Advertisements
Track Severe Weather on mobile